sensor_id;sensor_type;location;lat;lon;timestamp;P1;durP1;ratioP1;P2;durP2;ratioP2
5125;SDS011;63008;53.112;8.896;2022-08-21T00:00:33;6.47;;;2.13;;
5125;SDS011;63008;53.112;8.896;2022-08-21T00:02:33;6.07;;;2.70;;
5125;SDS011;63008;53.112;8.896;2022-08-21T00:04:34;5.80;;;3.10;;
5125;SDS011;63008;53.112;8.896;2022-08-21T00:06:35;7.23;;;2.47;;
5125;SDS011;63008;53.112;8.896;2022-08-21T00:08:36;3.23;;;2.10;;
5125;SDS011;63008;53.112;8.896;2022-08-21T00:10:39;6.50;;;2.80;;
5125;SDS011;63008;53.112;8.896;2022-08-21T00:12:41;9.43;;;2.87;;
5125;SDS011;63008;53.112;8.896;2022-08-21T00:14:42;5.93;;;3.00;;
5125;SDS011;63008;53.112;8.896;2022-08-21T00:16:43;8.00;;;2.70;;
5125;SDS011;63008;53.112;8.896;2022-08-21T00:18:43;16.67;;;2.90;;
5125;SDS011;63008;53.112;8.896;2022-08-21T00:20:44;5.60;;;2.63;;
5125;SDS011;63008;53.112;8.896;2022-08-21T00:22:46;8.60;;;2.73;;
5125;SDS011;63008;53.112;8.896;2022-08-21T00:24:47;3.80;;;2.40;;
5125;SDS011;63008;53.112;8.896;2022-08-21T00:26:48;4.90;;;2.80;;
5125;SDS011;63008;53.112;8.896;2022-08-21T00:28:49;11.70;;;2.93;;
5125;SDS011;63008;53.112;8.896;2022-08-21T00:30:50;8.10;;;3.43;;
5125;SDS011;63008;53.112;8.896;2022-08-21T00:32:51;7.37;;;2.80;;
5125;SDS011;63008;53.112;8.896;2022-08-21T00:34:53;4.70;;;2.10;;
5125;SDS011;63008;53.112;8.896;2022-08-21T00:36:54;3.17;;;2.57;;
5125;SDS011;63008;53.112;8.896;2022-08-21T00:38:55;4.23;;;2.50;;
5125;SDS011;63008;53.112;8.896;2022-08-21T00:40:57;7.13;;;2.70;;
5125;SDS011;63008;53.112;8.896;2022-08-21T00:43:13;8.53;;;2.90;;
5125;SDS011;63008;53.112;8.896;2022-08-21T00:45:22;7.00;;;2.80;;
5125;SDS011;63008;53.112;8.896;2022-08-21T00:47:24;4.10;;;2.93;;
5125;SDS011;63008;53.112;8.896;2022-08-21T00:49:24;1.80;;;1.70;;
5125;SDS011;63008;53.112;8.896;2022-08-21T00:51:27;3.70;;;2.40;;
5125;SDS011;63008;53.112;8.896;2022-08-21T00:53:38;3.47;;;2.40;;
5125;SDS011;63008;53.112;8.896;2022-08-21T00:55:40;6.03;;;2.30;;
5125;SDS011;63008;53.112;8.896;2022-08-21T00:57:45;3.40;;;2.03;;
5125;SDS011;63008;53.112;8.896;2022-08-21T00:59:51;3.53;;;2.30;;
5125;SDS011;63008;53.112;8.896;2022-08-21T01:01:54;4.47;;;2.47;;
5125;SDS011;63008;53.112;8.896;2022-08-21T01:03:54;5.40;;;3.03;;
5125;SDS011;63008;53.112;8.896;2022-08-21T01:05:55;5.33;;;2.40;;
5125;SDS011;63008;53.112;8.896;2022-08-21T01:07:55;3.50;;;2.67;;
5125;SDS011;63008;53.112;8.896;2022-08-21T01:09:57;5.70;;;2.50;;
5125;SDS011;63008;53.112;8.896;2022-08-21T01:11:58;2.33;;;2.10;;
5125;SDS011;63008;53.112;8.896;2022-08-21T01:14:02;4.53;;;2.07;;
5125;SDS011;63008;53.112;8.896;2022-08-21T01:16:03;5.93;;;2.17;;
5125;SDS011;63008;53.112;8.896;2022-08-21T01:18:09;2.93;;;2.40;;
5125;SDS011;63008;53.112;8.896;2022-08-21T01:20:11;5.90;;;2.40;;
5125;SDS011;63008;53.112;8.896;2022-08-21T01:22:12;4.90;;;2.33;;
5125;SDS011;63008;53.112;8.896;2022-08-21T01:24:13;8.30;;;2.60;;
5125;SDS011;63008;53.112;8.896;2022-08-21T01:26:14;3.13;;;2.60;;
5125;SDS011;63008;53.112;8.896;2022-08-21T01:28:17;4.30;;;1.97;;
5125;SDS011;63008;53.112;8.896;2022-08-21T01:30:20;4.00;;;2.20;;
5125;SDS011;63008;53.112;8.896;2022-08-21T01:32:24;4.70;;;2.47;;
5125;SDS011;63008;53.112;8.896;2022-08-21T01:34:25;4.60;;;2.40;;
5125;SDS011;63008;53.112;8.896;2022-08-21T01:36:25;6.83;;;1.80;;
5125;SDS011;63008;53.112;8.896;2022-08-21T01:38:26;9.00;;;1.90;;
5125;SDS011;63008;53.112;8.896;2022-08-21T01:40:27;3.33;;;1.93;;
5125;SDS011;63008;53.112;8.896;2022-08-21T01:42:34;6.00;;;2.00;;
5125;SDS011;63008;53.112;8.896;2022-08-21T01:44:48;3.33;;;2.20;;
5125;SDS011;63008;53.112;8.896;2022-08-21T01:46:49;4.97;;;2.83;;
5125;SDS011;63008;53.112;8.896;2022-08-21T01:48:50;3.53;;;2.20;;
5125;SDS011;63008;53.112;8.896;2022-08-21T01:50:51;4.33;;;1.97;;
5125;SDS011;63008;53.112;8.896;2022-08-21T01:52:51;6.27;;;2.70;;
5125;SDS011;63008;53.112;8.896;2022-08-21T01:54:52;4.00;;;2.43;;
5125;SDS011;63008;53.112;8.896;2022-08-21T01:56:53;3.20;;;1.90;;
5125;SDS011;63008;53.112;8.896;2022-08-21T01:58:55;5.30;;;2.47;;
5125;SDS011;63008;53.112;8.896;2022-08-21T02:00:55;5.90;;;3.57;;
5125;SDS011;63008;53.112;8.896;2022-08-21T02:02:56;8.83;;;2.50;;
5125;SDS011;63008;53.112;8.896;2022-08-21T02:04:56;6.90;;;2.67;;
5125;SDS011;63008;53.112;8.896;2022-08-21T02:06:57;6.00;;;3.00;;
5125;SDS011;63008;53.112;8.896;2022-08-21T02:08:57;5.67;;;2.93;;
5125;SDS011;63008;53.112;8.896;2022-08-21T02:10:58;2.90;;;2.10;;
5125;SDS011;63008;53.112;8.896;2022-08-21T02:12:59;6.57;;;2.77;;
5125;SDS011;63008;53.112;8.896;2022-08-21T02:15:00;5.83;;;2.87;;
5125;SDS011;63008;53.112;8.896;2022-08-21T02:17:03;2.03;;;1.90;;
5125;SDS011;63008;53.112;8.896;2022-08-21T02:19:03;3.00;;;2.50;;
5125;SDS011;63008;53.112;8.896;2022-08-21T02:21:05;7.13;;;2.30;;
5125;SDS011;63008;53.112;8.896;2022-08-21T02:23:07;2.47;;;2.27;;
5125;SDS011;63008;53.112;8.896;2022-08-21T02:25:09;6.10;;;2.50;;
5125;SDS011;63008;53.112;8.896;2022-08-21T02:27:09;4.60;;;3.37;;
5125;SDS011;63008;53.112;8.896;2022-08-21T02:29:10;3.97;;;2.50;;
5125;SDS011;63008;53.112;8.896;2022-08-21T02:31:11;4.90;;;2.90;;
5125;SDS011;63008;53.112;8.896;2022-08-21T02:33:18;9.03;;;2.73;;
5125;SDS011;63008;53.112;8.896;2022-08-21T02:35:20;3.73;;;2.20;;
5125;SDS011;63008;53.112;8.896;2022-08-21T02:37:20;3.03;;;2.50;;
5125;SDS011;63008;53.112;8.896;2022-08-21T02:39:21;6.20;;;2.80;;
5125;SDS011;63008;53.112;8.896;2022-08-21T02:41:22;8.37;;;2.87;;
5125;SDS011;63008;53.112;8.896;2022-08-21T02:43:36;6.50;;;2.80;;
5125;SDS011;63008;53.112;8.896;2022-08-21T02:45:44;4.23;;;2.30;;
5125;SDS011;63008;53.112;8.896;2022-08-21T02:47:56;3.10;;;2.47;;
5125;SDS011;63008;53.112;8.896;2022-08-21T02:50:03;3.20;;;2.30;;
5125;SDS011;63008;53.112;8.896;2022-08-21T02:52:04;3.43;;;2.27;;
5125;SDS011;63008;53.112;8.896;2022-08-21T02:54:07;7.30;;;2.60;;
5125;SDS011;63008;53.112;8.896;2022-08-21T02:56:08;3.00;;;2.37;;
5125;SDS011;63008;53.112;8.896;2022-08-21T02:58:10;4.83;;;2.33;;
5125;SDS011;63008;53.112;8.896;2022-08-21T03:00:13;2.60;;;2.40;;
5125;SDS011;63008;53.112;8.896;2022-08-21T03:02:15;4.97;;;2.67;;
5125;SDS011;63008;53.112;8.896;2022-08-21T03:04:16;6.40;;;2.33;;
5125;SDS011;63008;53.112;8.896;2022-08-21T03:06:18;2.70;;;2.37;;
5125;SDS011;63008;53.112;8.896;2022-08-21T03:08:21;5.53;;;2.73;;
5125;SDS011;63008;53.112;8.896;2022-08-21T03:10:22;3.87;;;2.30;;
5125;SDS011;63008;53.112;8.896;2022-08-21T03:12:23;2.70;;;2.50;;
5125;SDS011;63008;53.112;8.896;2022-08-21T03:14:24;3.23;;;1.90;;
5125;SDS011;63008;53.112;8.896;2022-08-21T03:16:25;3.20;;;2.43;;
5125;SDS011;63008;53.112;8.896;2022-08-21T03:18:25;6.30;;;2.63;;
5125;SDS011;63008;53.112;8.896;2022-08-21T03:20:27;4.17;;;2.00;;
5125;SDS011;63008;53.112;8.896;2022-08-21T03:22:28;9.00;;;2.70;;
5125;SDS011;63008;53.112;8.896;2022-08-21T03:24:29;3.63;;;2.20;;
5125;SDS011;63008;53.112;8.896;2022-08-21T03:26:29;5.47;;;2.40;;
5125;SDS011;63008;53.112;8.896;2022-08-21T03:28:30;4.67;;;2.17;;
5125;SDS011;63008;53.112;8.896;2022-08-21T03:30:31;5.33;;;2.20;;
5125;SDS011;63008;53.112;8.896;2022-08-21T03:32:32;3.50;;;1.90;;
5125;SDS011;63008;53.112;8.896;2022-08-21T03:34:39;3.07;;;2.23;;
5125;SDS011;63008;53.112;8.896;2022-08-21T03:36:40;2.30;;;2.10;;
5125;SDS011;63008;53.112;8.896;2022-08-21T03:38:40;2.47;;;2.00;;
5125;SDS011;63008;53.112;8.896;2022-08-21T03:40:42;3.43;;;1.80;;
5125;SDS011;63008;53.112;8.896;2022-08-21T03:42:43;6.30;;;2.00;;
5125;SDS011;63008;53.112;8.896;2022-08-21T03:44:57;3.23;;;2.17;;
5125;SDS011;63008;53.112;8.896;2022-08-21T03:46:58;3.77;;;2.20;;
5125;SDS011;63008;53.112;8.896;2022-08-21T03:48:58;5.03;;;1.67;;
5125;SDS011;63008;53.112;8.896;2022-08-21T03:50:59;4.60;;;2.10;;
5125;SDS011;63008;53.112;8.896;2022-08-21T03:53:00;3.20;;;2.40;;
5125;SDS011;63008;53.112;8.896;2022-08-21T03:55:01;3.70;;;2.40;;
5125;SDS011;63008;53.112;8.896;2022-08-21T03:57:01;2.50;;;1.80;;
5125;SDS011;63008;53.112;8.896;2022-08-21T03:59:02;2.83;;;2.17;;
5125;SDS011;63008;53.112;8.896;2022-08-21T04:01:04;3.30;;;1.77;;
5125;SDS011;63008;53.112;8.896;2022-08-21T04:03:06;3.03;;;2.73;;
5125;SDS011;63008;53.112;8.896;2022-08-21T04:05:07;4.20;;;2.70;;
5125;SDS011;63008;53.112;8.896;2022-08-21T04:07:08;13.63;;;2.37;;
5125;SDS011;63008;53.112;8.896;2022-08-21T04:09:09;4.70;;;2.23;;
5125;SDS011;63008;53.112;8.896;2022-08-21T04:11:09;8.13;;;2.20;;
5125;SDS011;63008;53.112;8.896;2022-08-21T04:13:13;6.77;;;1.97;;
5125;SDS011;63008;53.112;8.896;2022-08-21T04:15:15;3.37;;;2.20;;
5125;SDS011;63008;53.112;8.896;2022-08-21T04:17:15;2.57;;;2.37;;
5125;SDS011;63008;53.112;8.896;2022-08-21T04:19:16;4.67;;;2.43;;
5125;SDS011;63008;53.112;8.896;2022-08-21T04:21:16;6.10;;;2.73;;
5125;SDS011;63008;53.112;8.896;2022-08-21T04:23:18;3.20;;;2.40;;
5125;SDS011;63008;53.112;8.896;2022-08-21T04:25:21;3.30;;;2.10;;
5125;SDS011;63008;53.112;8.896;2022-08-21T04:27:22;5.53;;;2.20;;
5125;SDS011;63008;53.112;8.896;2022-08-21T04:29:23;2.30;;;2.10;;
5125;SDS011;63008;53.112;8.896;2022-08-21T04:31:24;2.93;;;1.80;;
5125;SDS011;63008;53.112;8.896;2022-08-21T04:33:25;6.47;;;2.70;;
5125;SDS011;63008;53.112;8.896;2022-08-21T04:35:32;3.43;;;2.60;;
5125;SDS011;63008;53.112;8.896;2022-08-21T04:37:33;4.37;;;2.30;;
5125;SDS011;63008;53.112;8.896;2022-08-21T04:39:34;5.80;;;2.20;;
5125;SDS011;63008;53.112;8.896;2022-08-21T04:41:35;3.63;;;1.70;;
5125;SDS011;63008;53.112;8.896;2022-08-21T04:43:49;7.33;;;1.97;;
5125;SDS011;63008;53.112;8.896;2022-08-21T04:45:56;2.47;;;1.90;;
5125;SDS011;63008;53.112;8.896;2022-08-21T04:47:57;3.53;;;2.20;;
5125;SDS011;63008;53.112;8.896;2022-08-21T04:50:01;8.10;;;2.33;;
5125;SDS011;63008;53.112;8.896;2022-08-21T04:52:01;2.70;;;1.77;;
5125;SDS011;63008;53.112;8.896;2022-08-21T04:54:09;3.80;;;2.70;;
5125;SDS011;63008;53.112;8.896;2022-08-21T04:58:37;4.37;;;2.53;;
5125;SDS011;63008;53.112;8.896;2022-08-21T05:00:38;4.70;;;2.20;;
5125;SDS011;63008;53.112;8.896;2022-08-21T05:02:40;3.43;;;2.40;;
5125;SDS011;63008;53.112;8.896;2022-08-21T05:04:42;3.37;;;1.70;;
5125;SDS011;63008;53.112;8.896;2022-08-21T05:06:45;2.37;;;2.10;;
5125;SDS011;63008;53.112;8.896;2022-08-21T05:08:48;3.30;;;2.40;;
5125;SDS011;63008;53.112;8.896;2022-08-21T05:10:52;2.20;;;1.83;;
5125;SDS011;63008;53.112;8.896;2022-08-21T05:12:53;3.50;;;2.20;;
5125;SDS011;63008;53.112;8.896;2022-08-21T05:14:54;3.90;;;2.40;;
5125;SDS011;63008;53.112;8.896;2022-08-21T05:16:54;1.97;;;1.63;;
5125;SDS011;63008;53.112;8.896;2022-08-21T05:18:55;4.33;;;2.30;;
5125;SDS011;63008;53.112;8.896;2022-08-21T05:20:55;5.90;;;2.10;;
5125;SDS011;63008;53.112;8.896;2022-08-21T05:23:09;2.90;;;1.70;;
5125;SDS011;63008;53.112;8.896;2022-08-21T05:25:12;3.23;;;2.00;;
5125;SDS011;63008;53.112;8.896;2022-08-21T05:27:13;3.60;;;2.00;;
5125;SDS011;63008;53.112;8.896;2022-08-21T05:29:14;5.37;;;2.27;;
5125;SDS011;63008;53.112;8.896;2022-08-21T05:31:16;4.03;;;2.07;;
5125;SDS011;63008;53.112;8.896;2022-08-21T05:33:18;2.53;;;2.30;;
5125;SDS011;63008;53.112;8.896;2022-08-21T05:35:19;1.87;;;1.77;;
5125;SDS011;63008;53.112;8.896;2022-08-21T05:37:20;1.83;;;1.50;;
5125;SDS011;63008;53.112;8.896;2022-08-21T05:39:20;4.00;;;1.53;;
5125;SDS011;63008;53.112;8.896;2022-08-21T05:41:21;2.50;;;2.00;;
5125;SDS011;63008;53.112;8.896;2022-08-21T05:43:22;2.00;;;1.83;;
5125;SDS011;63008;53.112;8.896;2022-08-21T05:45:36;7.50;;;2.07;;
5125;SDS011;63008;53.112;8.896;2022-08-21T05:47:37;6.03;;;2.00;;
5125;SDS011;63008;53.112;8.896;2022-08-21T05:49:37;4.13;;;2.10;;
5125;SDS011;63008;53.112;8.896;2022-08-21T05:51:41;7.63;;;2.10;;
5125;SDS011;63008;53.112;8.896;2022-08-21T05:53:42;6.47;;;2.53;;
5125;SDS011;63008;53.112;8.896;2022-08-21T05:55:43;6.00;;;2.63;;
5125;SDS011;63008;53.112;8.896;2022-08-21T05:57:44;7.83;;;3.00;;
5125;SDS011;63008;53.112;8.896;2022-08-21T05:59:45;4.50;;;2.70;;
5125;SDS011;63008;53.112;8.896;2022-08-21T06:01:45;6.50;;;2.60;;
5125;SDS011;63008;53.112;8.896;2022-08-21T06:03:46;8.03;;;3.23;;
5125;SDS011;63008;53.112;8.896;2022-08-21T06:05:47;5.17;;;2.63;;
5125;SDS011;63008;53.112;8.896;2022-08-21T06:07:47;7.97;;;3.93;;
5125;SDS011;63008;53.112;8.896;2022-08-21T06:09:49;6.53;;;3.17;;
5125;SDS011;63008;53.112;8.896;2022-08-21T06:11:49;7.37;;;2.80;;
5125;SDS011;63008;53.112;8.896;2022-08-21T06:13:50;6.77;;;3.13;;
5125;SDS011;63008;53.112;8.896;2022-08-21T06:15:59;8.30;;;3.87;;
5125;SDS011;63008;53.112;8.896;2022-08-21T06:18:08;6.00;;;3.30;;
5125;SDS011;63008;53.112;8.896;2022-08-21T06:20:09;11.60;;;3.67;;
5125;SDS011;63008;53.112;8.896;2022-08-21T06:22:10;7.70;;;3.60;;
5125;SDS011;63008;53.112;8.896;2022-08-21T06:24:16;7.57;;;3.53;;
5125;SDS011;63008;53.112;8.896;2022-08-21T06:26:17;7.00;;;4.30;;
5125;SDS011;63008;53.112;8.896;2022-08-21T06:28:17;6.00;;;4.57;;
5125;SDS011;63008;53.112;8.896;2022-08-21T06:30:18;15.63;;;4.10;;
5125;SDS011;63008;53.112;8.896;2022-08-21T06:32:19;13.13;;;4.07;;
5125;SDS011;63008;53.112;8.896;2022-08-21T06:34:20;10.30;;;4.07;;
5125;SDS011;63008;53.112;8.896;2022-08-21T06:36:20;9.60;;;4.13;;
5125;SDS011;63008;53.112;8.896;2022-08-21T06:38:21;12.53;;;4.53;;
5125;SDS011;63008;53.112;8.896;2022-08-21T06:40:21;9.30;;;4.30;;
5125;SDS011;63008;53.112;8.896;2022-08-21T06:42:36;8.97;;;3.87;;
5125;SDS011;63008;53.112;8.896;2022-08-21T06:44:50;7.73;;;3.90;;
5125;SDS011;63008;53.112;8.896;2022-08-21T06:46:51;5.90;;;4.10;;
5125;SDS011;63008;53.112;8.896;2022-08-21T06:48:52;9.40;;;3.93;;
5125;SDS011;63008;53.112;8.896;2022-08-21T06:50:52;9.67;;;3.60;;
5125;SDS011;63008;53.112;8.896;2022-08-21T06:53:00;12.77;;;4.90;;
5125;SDS011;63008;53.112;8.896;2022-08-21T06:55:07;9.50;;;3.83;;
5125;SDS011;63008;53.112;8.896;2022-08-21T06:57:09;15.90;;;3.87;;
5125;SDS011;63008;53.112;8.896;2022-08-21T06:59:10;10.00;;;3.80;;
5125;SDS011;63008;53.112;8.896;2022-08-21T07:01:10;9.20;;;3.70;;
5125;SDS011;63008;53.112;8.896;2022-08-21T07:03:21;7.67;;;3.70;;
5125;SDS011;63008;53.112;8.896;2022-08-21T07:05:25;8.10;;;3.50;;
5125;SDS011;63008;53.112;8.896;2022-08-21T07:07:27;7.13;;;3.60;;
5125;SDS011;63008;53.112;8.896;2022-08-21T07:09:27;10.33;;;4.10;;
5125;SDS011;63008;53.112;8.896;2022-08-21T07:11:28;7.60;;;3.80;;
5125;SDS011;63008;53.112;8.896;2022-08-21T07:13:29;8.03;;;3.40;;
5125;SDS011;63008;53.112;8.896;2022-08-21T07:15:30;7.47;;;3.20;;
5125;SDS011;63008;53.112;8.896;2022-08-21T07:17:31;7.10;;;4.13;;
5125;SDS011;63008;53.112;8.896;2022-08-21T07:19:32;8.93;;;3.20;;
5125;SDS011;63008;53.112;8.896;2022-08-21T07:21:32;8.20;;;3.53;;
5125;SDS011;63008;53.112;8.896;2022-08-21T07:23:34;9.87;;;3.27;;
5125;SDS011;63008;53.112;8.896;2022-08-21T07:25:37;9.57;;;3.70;;
5125;SDS011;63008;53.112;8.896;2022-08-21T07:27:38;8.17;;;3.37;;
5125;SDS011;63008;53.112;8.896;2022-08-21T07:29:38;9.87;;;3.33;;
5125;SDS011;63008;53.112;8.896;2022-08-21T07:31:39;6.50;;;3.30;;
5125;SDS011;63008;53.112;8.896;2022-08-21T07:33:41;9.60;;;3.10;;
5125;SDS011;63008;53.112;8.896;2022-08-21T07:35:42;7.97;;;3.20;;
5125;SDS011;63008;53.112;8.896;2022-08-21T07:37:42;10.77;;;2.83;;
5125;SDS011;63008;53.112;8.896;2022-08-21T07:39:49;13.90;;;3.50;;
5125;SDS011;63008;53.112;8.896;2022-08-21T07:41:57;7.43;;;2.97;;
5125;SDS011;63008;53.112;8.896;2022-08-21T07:44:11;7.07;;;2.80;;
5125;SDS011;63008;53.112;8.896;2022-08-21T07:46:12;9.50;;;2.80;;
5125;SDS011;63008;53.112;8.896;2022-08-21T07:48:13;8.57;;;3.07;;
5125;SDS011;63008;53.112;8.896;2022-08-21T07:50:14;16.17;;;3.00;;
5125;SDS011;63008;53.112;8.896;2022-08-21T07:52:16;12.67;;;3.03;;
5125;SDS011;63008;53.112;8.896;2022-08-21T07:54:16;8.10;;;2.80;;
5125;SDS011;63008;53.112;8.896;2022-08-21T07:56:17;11.93;;;3.00;;
5125;SDS011;63008;53.112;8.896;2022-08-21T07:58:18;6.70;;;2.87;;
5125;SDS011;63008;53.112;8.896;2022-08-21T08:00:19;11.10;;;3.30;;
5125;SDS011;63008;53.112;8.896;2022-08-21T08:02:27;8.27;;;2.97;;
5125;SDS011;63008;53.112;8.896;2022-08-21T08:04:30;13.00;;;3.50;;
5125;SDS011;63008;53.112;8.896;2022-08-21T08:06:30;10.73;;;2.90;;
5125;SDS011;63008;53.112;8.896;2022-08-21T08:08:31;10.40;;;2.67;;
5125;SDS011;63008;53.112;8.896;2022-08-21T08:10:32;11.63;;;3.90;;
5125;SDS011;63008;53.112;8.896;2022-08-21T08:12:37;4.13;;;2.70;;
5125;SDS011;63008;53.112;8.896;2022-08-21T08:14:39;5.93;;;2.57;;
5125;SDS011;63008;53.112;8.896;2022-08-21T08:16:39;5.40;;;2.23;;
5125;SDS011;63008;53.112;8.896;2022-08-21T08:18:40;8.43;;;3.33;;
5125;SDS011;63008;53.112;8.896;2022-08-21T08:20:42;3.93;;;1.97;;
5125;SDS011;63008;53.112;8.896;2022-08-21T08:22:43;8.63;;;3.07;;
5125;SDS011;63008;53.112;8.896;2022-08-21T08:24:45;4.83;;;1.80;;
5125;SDS011;63008;53.112;8.896;2022-08-21T08:26:47;8.50;;;2.50;;
5125;SDS011;63008;53.112;8.896;2022-08-21T08:28:47;10.47;;;2.23;;
5125;SDS011;63008;53.112;8.896;2022-08-21T08:30:48;5.50;;;2.57;;
5125;SDS011;63008;53.112;8.896;2022-08-21T08:32:49;8.23;;;2.23;;
5125;SDS011;63008;53.112;8.896;2022-08-21T08:34:50;9.40;;;2.43;;
5125;SDS011;63008;53.112;8.896;2022-08-21T08:36:52;10.07;;;2.17;;
5125;SDS011;63008;53.112;8.896;2022-08-21T08:38:53;5.80;;;1.80;;
5125;SDS011;63008;53.112;8.896;2022-08-21T08:41:12;5.07;;;2.70;;
5125;SDS011;63008;53.112;8.896;2022-08-21T08:43:22;11.40;;;2.60;;
5125;SDS011;63008;53.112;8.896;2022-08-21T08:45:37;4.70;;;1.67;;
5125;SDS011;63008;53.112;8.896;2022-08-21T08:47:44;4.97;;;1.40;;
5125;SDS011;63008;53.112;8.896;2022-08-21T08:49:55;6.70;;;2.20;;
5125;SDS011;63008;53.112;8.896;2022-08-21T08:52:18;2.53;;;1.30;;
5125;SDS011;63008;53.112;8.896;2022-08-21T08:54:33;3.23;;;1.33;;
5125;SDS011;63008;53.112;8.896;2022-08-21T08:56:41;1.90;;;1.70;;
5125;SDS011;63008;53.112;8.896;2022-08-21T08:58:42;5.20;;;1.40;;
5125;SDS011;63008;53.112;8.896;2022-08-21T09:00:46;2.17;;;1.30;;
5125;SDS011;63008;53.112;8.896;2022-08-21T09:02:50;4.93;;;1.60;;
5125;SDS011;63008;53.112;8.896;2022-08-21T09:04:54;3.63;;;1.33;;
5125;SDS011;63008;53.112;8.896;2022-08-21T09:22:01;10.33;;;1.80;;
5125;SDS011;63008;53.112;8.896;2022-08-21T09:26:55;3.40;;;1.90;;
5125;SDS011;63008;53.112;8.896;2022-08-21T09:29:17;10.87;;;2.93;;
5125;SDS011;63008;53.112;8.896;2022-08-21T09:31:26;8.10;;;2.40;;
5125;SDS011;63008;53.112;8.896;2022-08-21T09:33:27;7.87;;;1.90;;
5125;SDS011;63008;53.112;8.896;2022-08-21T09:35:28;10.30;;;2.53;;
5125;SDS011;63008;53.112;8.896;2022-08-21T09:37:30;7.80;;;2.03;;
5125;SDS011;63008;53.112;8.896;2022-08-21T09:39:38;8.53;;;2.10;;
5125;SDS011;63008;53.112;8.896;2022-08-21T09:41:59;5.93;;;2.27;;
5125;SDS011;63008;53.112;8.896;2022-08-21T09:44:24;8.80;;;2.30;;
5125;SDS011;63008;53.112;8.896;2022-08-21T09:46:29;7.70;;;2.70;;
5125;SDS011;63008;53.112;8.896;2022-08-21T09:48:37;8.80;;;2.47;;
5125;SDS011;63008;53.112;8.896;2022-08-21T09:50:49;13.77;;;2.33;;
5125;SDS011;63008;53.112;8.896;2022-08-21T09:52:51;6.33;;;2.60;;
5125;SDS011;63008;53.112;8.896;2022-08-21T09:54:54;8.70;;;2.83;;
5125;SDS011;63008;53.112;8.896;2022-08-21T09:57:00;9.13;;;2.90;;
5125;SDS011;63008;53.112;8.896;2022-08-21T09:59:32;7.77;;;1.97;;
5125;SDS011;63008;53.112;8.896;2022-08-21T10:01:41;6.57;;;2.57;;
5125;SDS011;63008;53.112;8.896;2022-08-21T10:03:44;4.50;;;2.00;;
5125;SDS011;63008;53.112;8.896;2022-08-21T10:08:23;13.63;;;2.80;;
5125;SDS011;63008;53.112;8.896;2022-08-21T10:10:28;4.07;;;2.17;;
5125;SDS011;63008;53.112;8.896;2022-08-21T10:15:06;9.80;;;2.30;;
5125;SDS011;63008;53.112;8.896;2022-08-21T10:22:15;11.30;;;2.97;;
5125;SDS011;63008;53.112;8.896;2022-08-21T10:24:20;8.43;;;2.50;;
5125;SDS011;63008;53.112;8.896;2022-08-21T10:28:34;6.50;;;2.30;;
5125;SDS011;63008;53.112;8.896;2022-08-21T10:33:18;12.50;;;2.93;;
5125;SDS011;63008;53.112;8.896;2022-08-21T10:35:29;5.17;;;2.10;;
5125;SDS011;63008;53.112;8.896;2022-08-21T10:37:46;5.90;;;2.03;;
5125;SDS011;63008;53.112;8.896;2022-08-21T10:48:02;7.10;;;2.33;;
5125;SDS011;63008;53.112;8.896;2022-08-21T10:50:10;5.77;;;2.27;;
5125;SDS011;63008;53.112;8.896;2022-08-21T10:56:27;11.20;;;2.47;;
5125;SDS011;63008;53.112;8.896;2022-08-21T10:58:31;4.50;;;1.90;;
5125;SDS011;63008;53.112;8.896;2022-08-21T11:05:28;5.27;;;1.90;;
5125;SDS011;63008;53.112;8.896;2022-08-21T11:09:34;4.20;;;2.03;;
5125;SDS011;63008;53.112;8.896;2022-08-21T11:11:52;5.40;;;2.00;;
5125;SDS011;63008;53.112;8.896;2022-08-21T11:14:30;3.27;;;1.70;;
5125;SDS011;63008;53.112;8.896;2022-08-21T11:16:56;3.30;;;1.77;;
5125;SDS011;63008;53.112;8.896;2022-08-21T11:19:05;2.70;;;1.77;;
5125;SDS011;63008;53.112;8.896;2022-08-21T11:23:43;2.63;;;1.70;;
5125;SDS011;63008;53.112;8.896;2022-08-21T11:25:49;2.57;;;1.57;;
5125;SDS011;63008;53.112;8.896;2022-08-21T11:27:56;4.30;;;1.70;;
5125;SDS011;63008;53.112;8.896;2022-08-21T11:30:02;5.50;;;1.60;;
5125;SDS011;63008;53.112;8.896;2022-08-21T11:37:06;2.80;;;1.27;;
5125;SDS011;63008;53.112;8.896;2022-08-21T11:50:37;1.80;;;1.33;;
5125;SDS011;63008;53.112;8.896;2022-08-21T11:52:50;3.87;;;1.70;;
5125;SDS011;63008;53.112;8.896;2022-08-21T11:57:13;4.50;;;2.00;;
5125;SDS011;63008;53.112;8.896;2022-08-21T11:59:20;3.63;;;1.50;;
5125;SDS011;63008;53.112;8.896;2022-08-21T12:01:26;5.57;;;1.83;;
5125;SDS011;63008;53.112;8.896;2022-08-21T12:03:33;4.50;;;1.80;;
5125;SDS011;63008;53.112;8.896;2022-08-21T12:05:38;7.93;;;2.40;;
5125;SDS011;63008;53.112;8.896;2022-08-21T12:07:42;7.13;;;1.60;;
5125;SDS011;63008;53.112;8.896;2022-08-21T12:09:53;4.13;;;1.63;;
5125;SDS011;63008;53.112;8.896;2022-08-21T12:14:14;5.40;;;1.40;;
5125;SDS011;63008;53.112;8.896;2022-08-21T12:16:27;9.27;;;2.00;;
5125;SDS011;63008;53.112;8.896;2022-08-21T12:18:32;4.10;;;1.30;;
5125;SDS011;63008;53.112;8.896;2022-08-21T12:20:38;3.83;;;1.83;;
5125;SDS011;63008;53.112;8.896;2022-08-21T12:25:23;2.43;;;1.30;;
5125;SDS011;63008;53.112;8.896;2022-08-21T12:27:30;4.73;;;1.30;;
5125;SDS011;63008;53.112;8.896;2022-08-21T12:29:45;4.50;;;1.90;;
5125;SDS011;63008;53.112;8.896;2022-08-21T12:31:57;4.00;;;1.53;;
5125;SDS011;63008;53.112;8.896;2022-08-21T12:34:01;7.10;;;1.80;;
5125;SDS011;63008;53.112;8.896;2022-08-21T12:36:07;3.90;;;2.30;;
5125;SDS011;63008;53.112;8.896;2022-08-21T12:38:18;3.17;;;1.50;;
5125;SDS011;63008;53.112;8.896;2022-08-21T12:40:24;4.07;;;1.60;;
5125;SDS011;63008;53.112;8.896;2022-08-21T12:42:37;2.13;;;1.80;;
5125;SDS011;63008;53.112;8.896;2022-08-21T12:45:02;4.90;;;1.80;;
5125;SDS011;63008;53.112;8.896;2022-08-21T12:47:11;5.57;;;1.40;;
5125;SDS011;63008;53.112;8.896;2022-08-21T12:49:18;4.60;;;2.07;;
5125;SDS011;63008;53.112;8.896;2022-08-21T12:51:26;2.70;;;2.07;;
5125;SDS011;63008;53.112;8.896;2022-08-21T12:55:47;3.80;;;1.70;;
5125;SDS011;63008;53.112;8.896;2022-08-21T12:57:48;5.47;;;1.90;;
5125;SDS011;63008;53.112;8.896;2022-08-21T13:00:07;3.93;;;1.50;;
5125;SDS011;63008;53.112;8.896;2022-08-21T13:02:16;6.97;;;1.83;;
5125;SDS011;63008;53.112;8.896;2022-08-21T13:04:22;8.17;;;2.30;;
5125;SDS011;63008;53.112;8.896;2022-08-21T13:06:36;4.07;;;1.40;;
5125;SDS011;63008;53.112;8.896;2022-08-21T13:08:39;7.03;;;1.90;;
5125;SDS011;63008;53.112;8.896;2022-08-21T13:10:41;4.17;;;1.50;;
5125;SDS011;63008;53.112;8.896;2022-08-21T13:12:41;5.93;;;1.50;;
5125;SDS011;63008;53.112;8.896;2022-08-21T13:14:43;3.63;;;1.50;;
5125;SDS011;63008;53.112;8.896;2022-08-21T13:16:47;3.37;;;1.70;;
5125;SDS011;63008;53.112;8.896;2022-08-21T13:18:56;3.80;;;1.87;;
5125;SDS011;63008;53.112;8.896;2022-08-21T13:21:03;4.10;;;1.90;;
5125;SDS011;63008;53.112;8.896;2022-08-21T13:23:08;3.23;;;1.70;;
5125;SDS011;63008;53.112;8.896;2022-08-21T13:25:21;1.73;;;1.50;;
5125;SDS011;63008;53.112;8.896;2022-08-21T13:27:27;6.70;;;1.80;;
5125;SDS011;63008;53.112;8.896;2022-08-21T13:29:32;2.00;;;1.40;;
5125;SDS011;63008;53.112;8.896;2022-08-21T13:31:37;3.33;;;1.63;;
5125;SDS011;63008;53.112;8.896;2022-08-21T13:33:42;3.97;;;1.90;;
5125;SDS011;63008;53.112;8.896;2022-08-21T13:37:56;5.03;;;1.70;;
5125;SDS011;63008;53.112;8.896;2022-08-21T13:39:59;4.47;;;1.77;;
5125;SDS011;63008;53.112;8.896;2022-08-21T13:42:01;1.83;;;1.43;;
5125;SDS011;63008;53.112;8.896;2022-08-21T13:44:14;9.20;;;1.50;;
5125;SDS011;63008;53.112;8.896;2022-08-21T13:46:33;2.00;;;1.37;;
5125;SDS011;63008;53.112;8.896;2022-08-21T13:48:42;4.07;;;1.70;;
5125;SDS011;63008;53.112;8.896;2022-08-21T13:50:43;8.50;;;1.97;;
5125;SDS011;63008;53.112;8.896;2022-08-21T13:52:49;3.40;;;1.57;;
5125;SDS011;63008;53.112;8.896;2022-08-21T13:54:56;9.33;;;2.13;;
5125;SDS011;63008;53.112;8.896;2022-08-21T13:56:59;5.20;;;1.80;;
5125;SDS011;63008;53.112;8.896;2022-08-21T13:59:00;10.63;;;2.27;;
5125;SDS011;63008;53.112;8.896;2022-08-21T14:01:03;8.87;;;1.60;;
5125;SDS011;63008;53.112;8.896;2022-08-21T14:03:07;3.37;;;1.70;;